City Time Now High Low DP Feels RH% Vsby Pressure Ceiling Direction Speed Gust Precip
Algona
IFR
2:15PM 21° 34° 21° 21° 100
%
mi
1021.7
mb
1600
ft
NNW 25
mph
38
mph
0.00"
KAXA 192015Z AUTO 33022G33KT 2 1/2SM BR BKN016 BKN020 M06/M06 A3017 RMK A01
Ankeny
VFR
2:15PM 36° 36° 21° 28° 23° 75
%
10
mi
1022.4
mb
3700
ft
NW 25
mph
40
mph
0.00"
KIKV 192015Z AUTO 31022G35KT 10SM -UP SCT029 BKN037 OVC050 02/M02 A3019 RMK AO2
Atlantic
VFR
2:35PM 36° 39° 21° 25° 23° 64
%
10
mi
1025.1
mb
3600
ft
NW 28
mph
33
mph
0.00"
KAIO 192035Z AUTO 31024G29KT 10SM BKN036 BKN047 02/M04 A3027 RMK AO2
Audubon
VFR
2:15PM 34° 37° 21° 25° 23° 69
%
10
mi
1024.4
mb
None NW 18
mph
30
mph
0.00"
KADU 192015Z AUTO 31016G26KT 10SM CLR 01/M04 A3025 RMK AO2
Ames
MVFR
2:22PM 33° 36° 22° 23° 18° 66
%
10
mi
1022.4
mb
2300
ft
NW 33
mph
47
mph
Trace
KAMW 192022Z AUTO 31029G41KT 10SM BKN023 BKN048 BKN060 01/M05 A3019 RMK AO2 PK WND 31041/2022 SNE04 P0000 T00061050
Boone
MVFR
2:35PM 30° 36° 23° 28° 16° 93
%
10
mi
1022.0
mb
2500
ft
WNW 26
mph
39
mph
0.01"
KBNW 192035Z AUTO 30023G34KT 10SM OVC025 M01/M02 A3018 RMK AO2
Burlington
VFR
1:53PM 37° 37° 15° 26° 27° 64
%
10
mi
1021.7
mb
None WSW 17
mph
23
mph
0.00"
KBRL 191953Z AUTO 25015G20KT 10SM FEW065 03/M03 A3017 RMK AO2 SLP224 T00281033
Carroll
VFR
2:35PM 32° 36° 25° 23° 18° 69
%
10
mi
1024.0
mb
3400
ft
WNW 29
mph
38
mph
0.00"
KCIN 192035Z AUTO 30025G33KT 10SM SCT029 BKN034 M00/M05 A3024 RMK AO2
Cedar Rapids
MVFR
1:52PM 31° 31° 15° 26° 19° 82
%
6
mi
1019.6
mb
2300
ft
WSW 18
mph
Trace
KCID 191952Z 25016KT 6SM HZ OVC023 M01/M03 A3011 RMK AO2 SNE45 SLP207 P0000 T10061033
Chariton
VFR
2:35PM 37° 37° 18° 28° 27° 70
%
10
mi
1022.7
mb
None W 21
mph
26
mph
0.00"
KCNC 192035Z AUTO 28018G23KT 10SM FEW043 SCT050 03/M02 A3020 RMK AO2
Charles City
MVFR
2:15PM 32° 34° 21° 28° 18° 86
%
3
mi
1017.3
mb
2900
ft
WNW 26
mph
0.00"
KCCY 192015Z AUTO 29023KT 3SM BR SCT020 BKN029 OVC039 M00/M02 A3004 RMK AO2
Clarinda
VFR
2:15PM 39° 41° 23° 27° 31° 60
%
10
mi
1026.1
mb
4400
ft
WNW 15
mph
30
mph
0.00"
KICL 192015Z AUTO 30013G26KT 10SM OVC044 04/M03 A3030 RMK AO2
Clarion
IFR
2:15PM 25° 34° 23° 25° 100
%
mi
1021.0
mb
1400
ft
NW 35
mph
43
mph
0.01"
KCAV 192015Z AUTO 32030G37KT 2 1/2SM BR BKN014 BKN019 OVC039 M04/M04 A3015 RMK A01
Clinton
IFR
2:24PM 30° 30° 10° 27° 21° 86
%
mi
1020.0
mb
1100
ft
WSW 12
mph
Trace
KCWI 192024Z AUTO 24010KT 2 1/2SM -SN BR OVC011 M01/M03 A3012 RMK AO2 SNB00 P0000 FZRANO
Council Bluffs
VFR
2:15PM 37° 39° 25° 23° 28° 56
%
10
mi
1025.4
mb
3900
ft
NW 17
mph
35
mph
0.00"
KCBF 192015Z AUTO 32015G30KT 10SM BKN039 BKN055 03/M05 A3028 RMK AO2
Creston
VFR
2:15PM 36° 36° 23° 32° 24° 87
%
10
mi
1023.7
mb
None W 24
mph
30
mph
0.00"
KCSQ 192015Z AUTO 28021G26KT 10SM FEW038 FEW044 FEW055 02/M00 A3023 RMK AO2
Centerville
VFR
2:15PM 36° 36° 18° 28° 75
%
10
mi
1024.0
mb
None 0.00"
KTVK 192015Z AUTO 10SM CLR 02/M02 A3024 RMK AO2
Cherokee
MVFR
2:15PM 28° 35° 25° 20° 14° 72
%
10
mi
1024.7
mb
2700
ft
NW 21
mph
31
mph
0.00"
KCKP 192015Z AUTO 32018G27KT 10SM BKN027 OVC032 M02/M07 A3026 RMK AO2 T10221066
Decorah
IFR
2:15PM 28° 28° 18° 28° 100
%
2
mi
1016.3
mb
None Calm 0.01"
KDEH 192015Z AUTO 00000KT 2SM -SN CLR M02/M02 A3001 RMK AO2
Denison
VFR
2:15PM 32° 37° 23° 21° 18° 64
%
10
mi
1025.4
mb
None WNW 29
mph
36
mph
0.00"
KDNS 192015Z AUTO 30025G31KT 10SM FEW034 SCT044 00/M06 A3028 RMK AO2
Des Moines
VFR
1:54PM 36° 36° 22° 25° 24° 64
%
10
mi
1022.4
mb
4700
ft
WNW 24
mph
36
mph
0.01"
KDSM 191954Z 29021G31KT 10SM SCT033 OVC047 02/M04 A3019 RMK AO2 PK WND 28031/1951 SLP235 T00221039
Dubuque
MVFR
1:53PM 28° 28° 15° 25° 17° 88
%
3
mi
1017.9
mb
1000
ft
SW 13
mph
Trace
KDBQ 191953Z 23011KT 3SM BR BKN010 OVC032 M02/M04 A3006 RMK AO2 SNB20E52 SLP197 P0000 T10221039 $
Estherville
IFR
2:21PM 18° 31° 18° 14° 84
%
mi
1023.4
mb
1200
ft
NW 25
mph
33
mph
Trace
KEST 192021Z AUTO 32022G29KT 1 3/4SM UP BR OVC012 M08/M10 A3022 RMK AO2 PK WND 32031/2005 P0000 T10781100
Fairfield
VFR
2:15PM 36° 36° 16° 27° 25° 69
%
10
mi
1022.0
mb
6000
ft
W 17
mph
0.00"
KFFL 192015Z AUTO 27015KT 10SM OVC060 02/M03 A3018 RMK A01
Fort Dodge
VFR
2:25PM 27° 35° 23° 19° 13° 74
%
10
mi
1022.7
mb
None NW 20
mph
30
mph
0.02"
KFOD 192025Z AUTO 32017G26KT 10SM SCT022 M03/M07 A3020 RMK AO2 PK WND 31030/1958 FZRANO
Fort Madison
VFR
2:15PM 39° 39° 19° 23° 31° 52
%
10
mi
1022.4
mb
6500
ft
W 14
mph
22
mph
0.00"
KFSW 192015Z AUTO 26012G19KT 10SM OVC065 04/M05 A3019 RMK AO2
Forest City
IFR
2:15PM 27° 34° 23° 27° 12° 100
%
1
mi
1020.0
mb
1000
ft
NNW 24
mph
36
mph
0.00"
KFXY 192015Z AUTO 33021G31KT 1SM BR OVC010 M03/M03 A3012 RMK AO2
Grinnell
VFR
2:15PM 37° 37° 18° 28° 27° 67
%
10
mi
1021.0
mb
3800
ft
W 18
mph
26
mph
0.00"
KGGI 192015Z AUTO 27016G23KT 10SM SCT027 BKN038 OVC060 03/M02 A3015 RMK AO2 T00301025
Harlan
VFR
2:15PM 34° 37° 23° 25° 20° 69
%
10
mi
1025.1
mb
4400
ft
NW 28
mph
37
mph
0.00"
KHNR 192015Z AUTO 32024G32KT 10SM FEW035 BKN044 01/M04 A3027 RMK AO2
Hampton
MVFR
2:15PM 32° 34° 23° 28° 17° 86
%
10
mi
1019.0
mb
1500
ft
WNW 31
mph
38
mph
0.00"
KHPT 192015Z AUTO 30027G33KT 10SM OVC015 00/M02 A3009 RMK AO2
Independence
MVFR
2:15PM 32° 32° 14° 28° 20° 86
%
10
mi
1018.3
mb
1900
ft
WSW 18
mph
0.00"
KIIB 192015Z AUTO 25016KT 10SM BKN019 OVC029 00/M02 A3007 RMK AO2 T00001021
Iowa City
MVFR
2:19PM 34° 34° 17° 26° 24° 73
%
10
mi
1021.0
mb
2800
ft
WSW 16
mph
Trace
KIOW 192019Z AUTO 25014KT 10SM BKN028 BKN041 OVC055 01/M03 A3015 RMK AO2 SNE06 P0000 T00111033
Iowa Falls
VFR
2:35PM 32° 35° 23° 24° 18° 72
%
10
mi
1020.3
mb
3000
ft
WNW 30
mph
41
mph
0.00"
KIFA 192035Z AUTO 29026G36KT 10SM SCT018 OVC030 00/M04 A3013 RMK AO2 T00021042
Keokuk
VFR
2:15PM 39° 39° 18° 27° 30° 60
%
10
mi
1022.7
mb
None WSW 16
mph
0.00"
KEOK 192015Z AUTO 25014KT 10SM FEW037 04/M03 A3020 RMK AO2
Knoxville
VFR
2:15PM 37° 37° 21° 27° 27° 65
%
10
mi
1022.0
mb
5000
ft
W 21
mph
29
mph
0.00"
KOXV 192015Z AUTO 27018G25KT 10SM OVC050 03/M03 A3018 RMK AO2
Lamoni
VFR
1:53PM 37° 37° 20° 26° 27° 64
%
10
mi
1024.0
mb
None W 18
mph
Trace
KLWD 191953Z AUTO 28016KT 10SM CLR 03/M03 A3024 RMK AO2 SLP253 T00281033
Le Mars
VFR
2:15PM 28° 34° 25° 16° 15° 59
%
10
mi
1025.4
mb
None NW 21
mph
32
mph
0.00"
KLRJ 192015Z AUTO 32018G28KT 10SM CLR M02/M09 A3028 RMK AO2
Marshalltown
MVFR
2:19PM 34° 34° 17° 29° 21° 81
%
5
mi
1020.0
mb
2800
ft
W 26
mph
43
mph
Trace
KMIW 192019Z AUTO 28023G37KT 5SM UP SCT022 BKN028 OVC060 01/M02 A3012 RMK AO2 PK WND 30037/2014 UPB11 P0000 T00111017
Mason City
LIFR
2:19PM 26° 33° 21° 22° 84
%
¾
mi
1019.6
mb
🔺
1100
ft
NW 31
mph
41
mph
Trace
KMCW 192019Z AUTO 31027G36KT 3/4SM UP BR OVC011 M03/M06 A3011 RMK AO2 PK WND 31039/2008 UPB1955SNE1955B1956E1957B06E19 PRESRR P0000 T10331056
Monticello
MVFR
2:15PM 30° 32° 12° 28° 18° 93
%
7
mi
1019.0
mb
1700
ft
WSW 18
mph
25
mph
0.00"
KMXO 192015Z AUTO 25016G22KT 7SM OVC017 M01/M02 A3009 RMK AO2
Mount Pleasant
VFR
2:15PM 37° 37° 18° 28° 28° 70
%
10
mi
1022.0
mb
3500
ft
W 15
mph
21
mph
0.00"
KMPZ 192015Z AUTO 27013G18KT 10SM BKN035 OVC044 03/M02 A3018 RMK AO2
Muscatine
VFR
2:15PM 37° 37° 19° 27° 28° 65
%
10
mi
1021.3
mb
3400
ft
W 17
mph
28
mph
0.00"
KMUT 192015Z AUTO 26015G24KT 10SM BKN034 OVC044 03/M03 A3016 RMK AO2
Newton
MVFR
2:15PM 36° 36° 19° 30° 25° 81
%
10
mi
1021.0
mb
2700
ft
W 17
mph
26
mph
0.00"
KTNU 192015Z AUTO 27015G23KT 10SM BKN027 BKN031 OVC060 02/M01 A3015 RMK A01
Oelwein
MVFR
2:15PM 30° 30° 16° 28° 19° 93
%
9
mi
1017.6
mb
2700
ft
W 16
mph
0.00"
KOLZ 192015Z AUTO 26014KT 9SM FEW002 SCT021 BKN027 M01/M02 A3005 RMK A01
Ottumwa
VFR
1:53PM 35° 36° 14° 26° 24° 69
%
10
mi
1022.0
mb
6500
ft
W 18
mph
0.00"
KOTM 191953Z AUTO 27016KT 10SM OVC065 02/M03 A3018 RMK AO2 SLP229 T00171033
Osceola
VFR
2:15PM 38° 38° 22° 28° 28° 68
%
5
mi
1023.0
mb
None W 17
mph
24
mph
0.00"
KI75 192015Z AUTO 26015G21KT 5SM HZ SCT045 SCT050 03/M02 A3021 RMK AO2 T00331021
Oskaloosa
VFR
2:15PM 38° 38° 19° 30° 28° 72
%
10
mi
1022.0
mb
6500
ft
W 21
mph
26
mph
0.00"
KOOA 192015Z AUTO 28018G23KT 10SM OVC065 03/M01 A3018 RMK AO2 T00331012
Pella
VFR
2:15PM 37° 37° 20° 27° 28° 67
%
10
mi
1022.4
mb
None W 14
mph
23
mph
0.00"
KPEA 192015Z AUTO 27012G20KT 10SM SCT033 SCT042 SCT060 03/M03 A3019 RMK AO2 T00271028
Perry
VFR
2:15PM 34° 35° 25° 24° 21° 67
%
10
mi
1023.4
mb
None WNW 25
mph
37
mph
0.00"
KPRO 192015Z AUTO 30022G32KT 10SM SCT027 SCT034 01/M04 A3022 RMK AO2 T00111044
Quad Cities
VFR
1:52PM 32° 32° 15° 27° 82
%
7
mi
1020.7
mb
5500
ft
0.00"
KDVN 191952Z AUTO 7SM BKN055 OVC075 00/M03 A3014 RMK AO2 SLP213 T00001028
Red Oak
VFR
2:35PM 37° 41° 25° 27° 27° 65
%
10
mi
1026.1
mb
5500
ft
NW 21
mph
28
mph
0.00"
KRDK 192035Z AUTO 31018G24KT 10SM SCT047 BKN055 03/M03 A3030 RMK AO2
Sheldon
MVFR
2:15PM 23° 32° 23° 18° 79
%
9
mi
1024.0
mb
1700
ft
NNW 25
mph
33
mph
0.00"
KSHL 192015Z AUTO 33022G29KT 9SM BKN017 M05/M08 A3024 RMK AO2
Shenandoah
VFR
2:15PM 39° 43° 27° 28° 31° 65
%
10
mi
1026.1
mb
4300
ft
WNW 14
mph
21
mph
0.00"
KSDA 192015Z AUTO 30012G18KT 10SM OVC043 04/M02 A3030 RMK AO2
Sioux City
VFR
1:52PM 33° 38° 22° 21° 19° 61
%
10
mi
1025.4
mb
3400
ft
NNW 31
mph
40
mph
Trace
KSUX 191952Z 33027G35KT 10SM BKN034 BKN048 01/M06 A3028 RMK AO2 PK WND 32036/1921 SLP265 T00061061
Spencer
MVFR
2:26PM 22° 34° 22° 15° 75
%
8
mi
1024.0
mb
1600
ft
NW 20
mph
37
mph
0.01"
KSPW 192026Z AUTO 32017G32KT 8SM BKN016 BKN020 M06/M09 A3024 RMK AO2 PK WND 33032/2019 UPE13 P0000 T10561094
Sioux County
VFR
2:35PM 27° 34° 25° 23° 11° 86
%
10
mi
1025.1
mb
None NNW 29
mph
35
mph
0.00"
KSXK 192035Z AUTO 33025G30KT 10SM CLR M03/M05 A3027 RMK AO2
Storm Lake
MVFR
2:15PM 27° 34° 23° 23° 12° 86
%
6
mi
2200
ft
NW 23
mph
38
mph
0.01"
KSLB 192015Z AUTO 32020G33KT 6SM -UP OVC022 M03/M05 RMK AO2
Vinton
MVFR
2:35PM 36° 36° 18° 29° 26° 77
%
10
mi
1019.3
mb
2800
ft
WSW 15
mph
21
mph
0.00"
KVTI 192035Z AUTO 25013G18KT 10SM BKN028 BKN040 02/M02 A3010 RMK AO2 T00201016
Washington
VFR
2:15PM 36° 36° 14° 28° 26° 75
%
10
mi
1021.0
mb
3000
ft
W 15
mph
26
mph
0.00"
KAWG 192015Z AUTO 27013G23KT 10SM BKN030 BKN035 OVC065 02/M02 A3015 RMK AO2
Waterloo
VFR
2:05PM 35° 35° 19° 28° 26° 75
%
10
mi
1018.6
mb
3100
ft
W 15
mph
29
mph
Trace
KALO 192005Z 26013G25KT 10SM SCT024 OVC031 02/M02 A3008 RMK AO2 T00171022
Webster City
MVFR
2:15PM 28° 34° 25° 23° 11° 80
%
8
mi
1021.7
mb
2800
ft
NW 38
mph
52
mph
0.00"
KEBS 192015Z AUTO 31033G45KT 8SM -UP SCT020 BKN028 M02/M05 A3017 RMK AO2
Click here to show this page without METARs included